Time;durP1;ratioP1;P1;durP2;ratioP2;P2;SDS_P1;SDS_P2;PMS_P1;PMS_P2;Temp;Humidity;BMP_temperature;BMP_pressure;BME280_temperature;BME280_humidity;BME280_pressure;Samples;Min_cycle;Max_cycle;Signal;HPM_P1;HPM_P2
2022/03/22 00:00:44;;;;;;;;;56.00;45.25;;;;;1.95;100.00;103041.38;3722398;37;21234;-45
2022/03/22 00:03:11;;;;;;;;;55.50;46.50;;;;;1.94;100.00;103031.62;3722188;37;21175;-47
2022/03/22 00:05:40;;;;;;;;;63.50;49.50;;;;;1.93;100.00;103034.38;3722308;38;21220;-45
2022/03/22 00:08:08;;;;;;;;;53.25;44.50;;;;;1.83;100.00;103033.91;3721563;38;21224;-47
2022/03/22 00:10:36;;;;;;;;;54.50;43.50;;;;;1.83;100.00;103031.22;3722151;38;21209;-46
2022/03/22 00:13:05;;;;;;;;;56.00;46.00;;;;;1.79;100.00;103031.44;3722463;38;20827;-47
2022/03/22 00:15:33;;;;;;;;;55.50;44.00;;;;;1.67;100.00;103031.03;3722389;38;21269;-47
2022/03/22 00:18:01;;;;;;;;;59.50;46.25;;;;;1.58;100.00;103034.09;3722292;37;21237;-46
2022/03/22 00:20:29;;;;;;;;;56.75;46.00;;;;;1.46;100.00;103031.97;3722371;38;21267;-45
2022/03/22 00:22:58;;;;;;;;;54.75;44.50;;;;;1.36;100.00;103027.94;3721393;37;21252;-46
2022/03/22 00:25:25;;;;;;;;;58.00;46.00;;;;;1.27;100.00;103022.97;3722154;37;21235;-46
2022/03/22 00:27:53;;;;;;;;;58.00;45.75;;;;;1.28;100.00;103022.91;3721592;37;21233;-45
2022/03/22 00:30:27;;;;;;;;;60.00;50.25;;;;;1.27;100.00;103036.31;3722098;37;21162;-47
2022/03/22 00:32:56;;;;;;;;;58.00;45.75;;;;;1.20;100.00;103021.50;3721447;37;21193;-46
2022/03/22 00:35:29;;;;;;;;;53.50;42.75;;;;;1.11;100.00;103028.06;3721504;37;21234;-46
2022/03/22 00:37:58;;;;;;;;;58.75;48.00;;;;;0.98;100.00;103024.19;3721537;37;21133;-44
2022/03/22 00:40:27;;;;;;;;;55.75;46.25;;;;;0.88;100.00;103021.00;3722312;38;21131;-45
2022/03/22 00:42:55;;;;;;;;;58.75;46.50;;;;;0.80;100.00;103020.44;3722324;37;21098;-44
2022/03/22 00:45:30;;;;;;;;;53.25;45.00;;;;;0.77;100.00;103015.22;3722353;38;21219;-44
2022/03/22 00:47:58;;;;;;;;;54.00;44.25;;;;;0.85;100.00;103009.59;3722014;37;21187;-45
2022/03/22 00:50:29;;;;;;;;;52.25;46.50;;;;;0.80;100.00;103014.25;3721533;38;21180;-45
2022/03/22 00:52:57;;;;;;;;;59.75;46.75;;;;;0.71;100.00;103001.28;3722458;38;20891;-45
2022/03/22 00:55:26;;;;;;;;;67.00;52.00;;;;;0.65;100.00;103008.59;3722208;38;21210;-45
2022/03/22 00:57:55;;;;;;;;;65.00;51.75;;;;;0.51;100.00;103008.28;3722262;37;21206;-47
2022/03/22 01:00:27;;;;;;;;;30.50;30.50;;;;;0.40;100.00;102998.94;3721604;37;21203;-47
2022/03/22 01:02:58;;;;;;;;;59.50;48.00;;;;;0.36;100.00;103015.97;3722307;38;21193;-46
2022/03/22 01:05:27;;;;;;;;;58.75;46.25;;;;;0.35;100.00;102998.25;3722347;37;21103;-46
2022/03/22 01:08:01;;;;;;;;;54.50;46.25;;;;;0.38;100.00;103015.00;3721720;37;21207;-46
2022/03/22 01:10:32;;;;;;;;;56.75;46.00;;;;;0.33;100.00;103008.97;3721450;37;21116;-47
2022/03/22 01:12:59;;;;;;;;;61.25;49.00;;;;;0.30;100.00;103004.62;3721559;37;21071;-45
2022/03/22 01:15:33;;;;;;;;;61.75;49.25;;;;;0.26;100.00;103010.13;3722426;38;21153;-44
2022/03/22 01:18:06;;;;;;;;;63.75;52.00;;;;;0.21;100.00;103006.75;3722050;38;21169;-44
2022/03/22 01:20:54;;;;;;;;;65.00;51.75;;;;;0.10;100.00;103003.63;3721260;37;21357;-44
2022/03/22 01:23:22;;;;;;;;;62.00;49.75;;;;;0.04;100.00;103003.84;3722042;38;21145;-46
2022/03/22 01:25:50;;;;;;;;;60.00;49.75;;;;;-0.03;100.00;103003.22;3721860;38;21100;-45
2022/03/22 01:28:17;;;;;;;;;54.25;44.00;;;;;-0.01;100.00;103004.03;3721137;37;21059;-45
2022/03/22 01:30:45;;;;;;;;;59.00;47.25;;;;;0.05;100.00;102995.81;3722187;37;21054;-44
2022/03/22 01:33:12;;;;;;;;;60.25;47.75;;;;;-0.01;100.00;102996.06;3721439;38;21255;-47
2022/03/22 01:35:41;;;;;;;;;52.25;42.25;;;;;-0.07;100.00;103004.25;3722458;37;21044;-47
2022/03/22 01:38:08;;;;;;;;;51.75;44.75;;;;;-0.09;100.00;103006.09;3721488;38;21047;-47
2022/03/22 01:40:36;;;;;;;;;54.00;46.00;;;;;-0.17;100.00;103003.72;3721457;38;21365;-47
2022/03/22 01:43:04;;;;;;;;;59.75;47.00;;;;;-0.24;100.00;103009.31;3722234;38;21138;-48
2022/03/22 01:45:33;;;;;;;;;57.75;46.75;;;;;-0.29;100.00;103001.47;3722118;38;21130;-47
2022/03/22 01:48:03;;;;;;;;;61.25;46.25;;;;;-0.28;100.00;103000.56;3722208;37;21013;-45
2022/03/22 01:50:31;;;;;;;;;76.75;55.50;;;;;-0.32;100.00;103004.25;3722132;37;21027;-47
2022/03/22 01:52:59;;;;;;;;;74.50;56.25;;;;;-0.27;100.00;103006.75;3722186;37;18271;-45
2022/03/22 01:55:27;;;;;;;;;66.00;51.50;;;;;-0.34;100.00;103000.78;3722385;37;17975;-46
2022/03/22 01:57:56;;;;;;;;;70.75;55.50;;;;;-0.31;100.00;102997.13;3721296;37;21021;-46
2022/03/22 02:00:26;;;;;;;;;78.00;60.00;;;;;-0.33;100.00;102997.19;3721832;38;21108;-46
2022/03/22 02:05:56;;;;;;;;;74.25;56.25;;;;;-0.32;100.00;103006.03;3722147;38;17984;-45
2022/03/22 02:08:30;;;;;;;;;78.25;61.75;;;;;-0.42;100.00;103003.69;3722018;38;17929;-44
2022/03/22 02:10:59;;;;;;;;;78.25;60.75;;;;;-0.47;100.00;103003.00;3722140;38;17962;-45
2022/03/22 02:13:28;;;;;;;;;71.50;56.00;;;;;-0.51;100.00;103001.34;3722139;38;21095;-45
2022/03/22 02:15:58;;;;;;;;;71.25;56.00;;;;;-0.60;100.00;102999.03;3721450;38;17930;-46
2022/03/22 02:18:26;;;;;;;;;62.75;50.00;;;;;-0.68;100.00;103001.09;3722196;38;17957;-46
2022/03/22 02:20:55;;;;;;;;;54.75;48.00;;;;;-0.64;100.00;102999.19;3722382;37;21284;-46
2022/03/22 02:23:50;;;;;;;;;62.25;50.75;;;;;-0.67;100.00;103006.34;3722273;38;20970;-45
2022/03/22 02:26:19;;;;;;;;;67.25;53.00;;;;;-0.72;100.00;103002.09;3721458;37;21276;-45
2022/03/22 02:28:47;;;;;;;;;64.00;50.25;;;;;-0.79;100.00;102990.81;3721540;37;21063;-46
2022/03/22 02:31:15;;;;;;;;;65.50;51.75;;;;;-0.80;100.00;103001.50;3722221;38;20982;-45
2022/03/22 02:33:43;;;;;;;;;61.75;48.50;;;;;-0.91;100.00;103000.97;3722413;37;20866;-45
2022/03/22 02:36:11;;;;;;;;;53.25;46.00;;;;;-0.99;100.00;103009.19;3722213;37;21157;-44
2022/03/22 02:38:39;;;;;;;;;60.00;49.00;;;;;-1.02;100.00;103006.63;3722187;37;21091;-46
2022/03/22 02:41:07;;;;;;;;;63.50;48.75;;;;;-1.13;100.00;102999.03;3721396;38;20955;-44
2022/03/22 02:43:35;;;;;;;;;63.75;51.25;;;;;-1.18;100.00;103006.28;3722314;38;21035;-44
2022/03/22 02:46:02;;;;;;;;;63.75;51.50;;;;;-1.17;100.00;103002.69;3722370;38;21009;-47
2022/03/22 02:48:29;;;;;;;;;68.00;50.00;;;;;-1.17;100.00;103007.13;3721577;38;21141;-46
2022/03/22 02:50:56;;;;;;;;;57.25;47.25;;;;;-1.21;100.00;103006.37;3721376;37;21050;-45
2022/03/22 02:53:24;;;;;;;;;64.25;49.25;;;;;-1.28;100.00;102995.97;3722053;38;20925;-46
2022/03/22 02:55:51;;;;;;;;;65.50;52.75;;;;;-1.36;100.00;103006.84;3722186;38;20966;-45
2022/03/22 02:58:18;;;;;;;;;61.00;49.25;;;;;-1.39;100.00;103001.62;3722343;38;21050;-44
2022/03/22 03:00:46;;;;;;;;;49.75;42.75;;;;;-1.43;100.00;102992.87;3721450;37;21107;-46
2022/03/22 03:03:13;;;;;;;;;61.75;49.75;;;;;-1.49;100.00;102994.84;3722195;37;20953;-46
2022/03/22 03:05:41;;;;;;;;;61.50;49.25;;;;;-1.46;100.00;103002.72;3721513;38;21061;-45
2022/03/22 03:08:09;;;;;;;;;64.00;51.00;;;;;-1.47;100.00;102987.69;3721548;38;21023;-46
2022/03/22 03:10:37;;;;;;;;;61.75;50.00;;;;;-1.44;100.00;102990.25;3722052;37;21006;-46
2022/03/22 03:13:05;;;;;;;;;67.50;54.00;;;;;-1.50;100.00;102983.34;3722173;37;20999;-46
2022/03/22 03:15:32;;;;;;;;;69.25;55.00;;;;;-1.56;100.00;102988.00;3721435;38;20921;-45
2022/03/22 03:18:00;;;;;;;;;72.00;58.25;;;;;-1.64;100.00;102990.88;3721674;38;17848;-46
2022/03/22 03:20:28;;;;;;;;;67.50;54.25;;;;;-1.74;100.00;102995.59;3722365;37;17865;-45
2022/03/22 03:22:56;;;;;;;;;65.25;51.00;;;;;-1.79;100.00;102986.91;3722391;37;17835;-46
2022/03/22 03:25:24;;;;;;;;;57.25;46.75;;;;;-1.75;100.00;102985.03;3721467;37;17850;-48
2022/03/22 03:27:52;;;;;;;;;1.50;1.50;;;;;-1.68;100.00;102991.88;3722208;38;21006;-46
2022/03/22 03:30:20;;;;;;;;;61.50;52.00;;;;;-1.63;100.00;102984.66;3721545;37;20854;-46
2022/03/22 03:32:47;;;;;;;;;64.25;51.75;;;;;-1.57;100.00;102988.91;3721242;38;20934;-45
2022/03/22 03:35:15;;;;;;;;;65.50;51.25;;;;;-1.58;100.00;102995.16;3721631;37;20661;-46
2022/03/22 03:37:43;;;;;;;;;60.00;49.00;;;;;-1.66;100.00;103000.69;3722461;37;17814;-47
2022/03/22 03:40:12;;;;;;;;;47.50;44.50;;;;;-1.68;100.00;102994.56;3722278;38;21018;-49
2022/03/22 03:42:44;;;;;;;;;58.25;47.00;;;;;-1.73;100.00;103009.75;3722412;37;20885;-48
2022/03/22 03:47:58;;;;;;;;;66.00;51.75;;;;;-1.84;100.00;103006.53;3722458;38;20859;-47
2022/03/22 03:50:26;;;;;;;;;65.50;51.00;;;;;-1.78;100.00;102999.25;3722341;37;21090;-46
2022/03/22 03:52:54;;;;;;;;;69.25;52.50;;;;;-1.70;100.00;103001.69;3721638;37;20944;-45
2022/03/22 03:55:21;;;;;;;;;58.50;49.00;;;;;-1.70;100.00;103004.34;3722397;38;20966;-46
2022/03/22 03:57:49;;;;;;;;;61.25;50.50;;;;;-1.69;100.00;102999.00;3722152;37;20925;-44
2022/03/22 04:00:17;;;;;;;;;68.25;53.25;;;;;-1.65;100.00;103004.22;3722407;38;20840;-44
2022/03/22 04:02:45;;;;;;;;;71.75;54.50;;;;;-1.64;100.00;103005.94;3722423;38;20951;-43
2022/03/22 04:05:12;;;;;;;;;81.50;62.50;;;;;-1.72;100.00;103015.00;3722285;38;17803;-42
2022/03/22 04:07:40;;;;;;;;;82.00;64.00;;;;;-1.79;100.00;103002.81;3722395;37;17804;-44
2022/03/22 04:10:08;;;;;;;;;74.25;56.50;;;;;-1.82;100.00;103004.69;3722230;38;18030;-43
2022/03/22 04:12:43;;;;;;;;;72.25;57.00;;;;;-1.87;100.00;103010.13;3721626;38;17836;-44
2022/03/22 04:15:11;;;;;;;;;75.75;56.25;;;;;-1.88;100.00;103013.69;3721731;38;18011;-45
2022/03/22 04:17:38;;;;;;;;;70.25;55.25;;;;;-1.91;100.00;103011.12;3721693;38;17756;-46
2022/03/22 04:20:07;;;;;;;;;72.25;58.00;;;;;-1.84;100.00;103011.81;3722387;37;20759;-45
2022/03/22 04:22:36;;;;;;;;;64.50;51.75;;;;;-1.76;100.00;103021.31;3722261;37;17775;-46
2022/03/22 04:25:04;;;;;;;;;73.75;58.25;;;;;-1.69;100.00;103014.03;3721528;37;17766;-46
2022/03/22 04:33:03;;;;;;;;;71.50;56.25;;;;;-1.56;100.00;103022.53;3722120;37;17759;-44
2022/03/22 04:35:30;;;;;;;;;71.00;57.25;;;;;-1.54;100.00;103018.00;3722257;38;17743;-46
2022/03/22 04:37:58;;;;;;;;;72.50;56.00;;;;;-1.61;100.00;103021.78;3721422;38;17751;-45
2022/03/22 04:40:26;;;;;;;;;71.75;57.00;;;;;-1.58;100.00;103024.34;3721513;37;17751;-48
2022/03/22 04:42:53;;;;;;;;;76.75;58.25;;;;;-1.62;100.00;103022.69;3721606;37;17725;-46
2022/03/22 04:45:20;;;;;;;;;73.75;55.50;;;;;-1.68;100.00;103013.13;3721272;37;20792;-45
2022/03/22 04:47:49;;;;;;;;;71.00;56.50;;;;;-1.70;100.00;103020.28;3721563;38;17677;-46
2022/03/22 04:50:17;;;;;;;;;72.75;57.25;;;;;-1.71;100.00;103024.72;3722440;37;17741;-47
2022/03/22 04:58:16;;;;;;;;;79.50;63.50;;;;;-1.23;100.00;103029.44;3722402;37;17714;-46
2022/03/22 05:00:46;;;;;;;;;79.50;63.50;;;;;-1.07;100.00;103029.84;3722291;38;17734;-46
2022/03/22 05:03:13;;;;;;;;;81.50;68.25;;;;;-0.96;100.00;103030.34;3722169;37;17713;-47
2022/03/22 05:08:25;;;;;;;;;72.50;57.25;;;;;-0.69;100.00;103029.47;3722549;38;17692;-48
2022/03/22 05:10:55;;;;;;;;;63.50;50.50;;;;;-0.54;100.00;103040.53;3722353;37;17691;-47
2022/03/22 05:13:23;;;;;;;;;76.50;58.75;;;;;-0.45;100.00;103040.19;3722426;37;17798;-47
2022/03/22 05:15:51;;;;;;;;;75.75;62.50;;;;;-0.37;100.00;103033.69;3722617;38;17705;-45
2022/03/22 05:18:20;;;;;;;;;76.00;60.00;;;;;-0.27;100.00;103041.34;3721504;38;17701;-46
2022/03/22 05:20:47;;;;;;;;;77.75;63.00;;;;;-0.15;100.00;103032.94;3721414;38;20757;-47
2022/03/22 05:23:17;;;;;;;;;80.25;62.25;;;;;-0.04;100.00;103036.09;3722259;38;17694;-47
2022/03/22 05:25:44;;;;;;;;;83.50;65.75;;;;;0.17;100.00;103032.63;3722460;37;17707;-47
2022/03/22 05:28:11;;;;;;;;;85.75;69.75;;;;;0.39;100.00;103032.72;3721756;37;17687;-46
2022/03/22 05:30:39;;;;;;;;;80.25;63.25;;;;;0.58;100.00;103036.37;3722432;37;17663;-48
2022/03/22 05:33:06;;;;;;;;;73.25;55.25;;;;;0.79;100.00;103040.03;3721307;38;17673;-48
2022/03/22 05:35:33;;;;;;;;;74.00;55.75;;;;;0.99;100.00;103036.59;3721902;37;17670;-46
2022/03/22 05:38:01;;;;;;;;;72.75;56.75;;;;;1.15;100.00;103035.00;3722367;37;17687;-46
2022/03/22 05:40:29;;;;;;;;;63.50;50.25;;;;;1.36;100.00;103037.75;3722560;37;17677;-46
2022/03/22 05:42:56;;;;;;;;;56.50;47.25;;;;;1.52;100.00;103037.03;3721446;37;17661;-47
2022/03/22 05:45:26;;;;;;;;;60.75;49.25;;;;;1.68;100.00;103039.91;3721613;38;20778;-47
2022/03/22 05:47:54;;;;;;;;;58.75;48.00;;;;;1.82;100.00;103034.84;3721751;38;20727;-47
2022/03/22 05:50:21;;;;;;;;;56.00;47.25;;;;;1.99;100.00;103036.78;3722191;38;20706;-47
2022/03/22 05:52:49;;;;;;;;;61.00;47.75;;;;;2.16;100.00;103039.53;3722288;37;20582;-46
2022/03/22 05:55:17;;;;;;;;;68.25;52.25;;;;;2.29;100.00;103040.72;3722378;37;20714;-46
2022/03/22 05:57:45;;;;;;;;;58.50;48.75;;;;;2.40;100.00;103037.56;3722138;37;20713;-48
2022/03/22 06:00:13;;;;;;;;;41.00;39.75;;;;;2.60;100.00;103050.84;3722471;37;20768;-47
2022/03/22 06:02:42;;;;;;;;;59.00;48.50;;;;;2.76;100.00;103042.12;3721321;37;20576;-46
2022/03/22 06:05:14;;;;;;;;;58.50;45.50;;;;;2.91;100.00;103052.97;3721527;37;21796;-46
2022/03/22 06:07:42;;;;;;;;;52.25;43.50;;;;;3.08;100.00;103045.94;3722370;37;20604;-44
2022/03/22 06:10:14;;;;;;;;;56.25;45.25;;;;;3.24;100.00;103052.25;3722065;37;20647;-47
2022/03/22 06:12:46;;;;;;;;;53.25;44.25;;;;;3.39;100.00;103046.16;3722071;37;20687;-46
2022/03/22 06:15:35;;;;;;;;;55.50;45.50;;;;;3.54;100.00;103048.06;3722099;37;20709;-46
2022/03/22 06:18:05;;;;;;;;;49.50;42.50;;;;;3.72;100.00;103043.56;3722143;38;21691;-46
2022/03/22 06:20:37;;;;;;;;;53.25;44.00;;;;;3.92;100.00;103045.22;3721521;37;21801;-46
2022/03/22 06:23:06;;;;;;;;;52.25;43.75;;;;;4.05;100.00;103035.59;3722311;37;21760;-45
2022/03/22 06:25:37;;;;;;;;;57.50;46.25;;;;;4.15;100.00;103041.34;3722224;37;21756;-46
2022/03/22 06:28:07;;;;;;;;;53.75;43.50;;;;;4.38;100.00;103034.72;3722366;38;21187;-47
2022/03/22 06:30:34;;;;;;;;;57.25;44.25;;;;;4.57;100.00;103025.59;3722302;37;21759;-46
2022/03/22 06:33:13;;;;;;;;;58.50;47.25;;;;;4.71;100.00;103034.69;3722349;37;21553;-46
2022/03/22 06:35:42;;;;;;;;;50.75;42.50;;;;;4.86;100.00;103032.00;3721461;37;21782;-47
2022/03/22 06:38:11;;;;;;;;;50.75;43.25;;;;;5.02;100.00;103037.38;3721304;37;21720;-46
2022/03/22 06:40:39;;;;;;;;;52.25;42.75;;;;;5.15;100.00;103032.19;3721514;37;21745;-47
2022/03/22 06:43:10;;;;;;;;;52.50;42.75;;;;;5.31;100.00;103036.56;3722100;37;21745;-47
2022/03/22 06:45:38;;;;;;;;;45.25;40.25;;;;;5.49;100.00;103040.00;3721959;38;21629;-48
2022/03/22 06:48:07;;;;;;;;;44.50;39.50;;;;;5.71;100.00;103038.75;3721338;37;21633;-48
2022/03/22 06:50:36;;;;;;;;;54.25;41.50;;;;;5.91;100.00;103031.22;3721274;37;21646;-48
2022/03/22 06:53:05;;;;;;;;;40.00;37.00;;;;;6.11;100.00;103047.97;3721810;38;21590;-47
2022/03/22 06:55:34;;;;;;;;;42.00;37.50;;;;;5.90;100.00;102977.56;3721273;37;21626;-46
2022/03/22 06:58:03;;;;;;;;;47.50;38.75;;;;;5.85;100.00;102947.38;3722030;37;21824;-49
2022/03/22 07:00:31;;;;;;;;;40.25;36.50;;;;;6.50;100.00;103047.31;3722275;37;21723;-46
2022/03/22 07:03:01;;;;;;;;;41.25;36.00;;;;;6.53;100.00;103036.34;3721473;38;21619;-47
2022/03/22 07:05:29;;;;;;;;;43.75;36.75;;;;;6.61;100.00;103034.03;3710371;37;21716;-48
2022/03/22 07:07:57;;;;;;;;;41.00;36.25;;;;;6.75;100.00;103023.25;3709630;38;21760;-48
2022/03/22 07:10:25;;;;;;;;;41.00;36.50;;;;;6.84;100.00;103046.87;3720789;38;21609;-46
2022/03/22 07:13:01;;;;;;;;;46.50;38.00;;;;;6.87;100.00;103041.28;3721175;37;21700;-46
2022/03/22 07:15:35;;;;;;;;;45.50;39.50;;;;;6.91;100.00;103026.66;3721107;38;21627;-50
2022/03/22 07:18:08;;;;;;;;;48.25;41.00;;;;;7.05;100.00;103025.78;3722061;37;21904;-49
2022/03/22 07:20:37;;;;;;;;;45.25;38.75;;;;;7.01;100.00;103029.63;3722098;37;21676;-47
2022/03/22 07:23:05;;;;;;;;;42.25;36.25;;;;;7.15;100.00;103026.91;3722142;38;21602;-49
2022/03/22 07:25:33;;;;;;;;;41.25;37.00;;;;;7.41;99.43;103029.69;3722044;38;21779;-48
2022/03/22 07:28:00;;;;;;;;;45.50;37.50;;;;;7.39;97.98;103031.59;3721491;38;21778;-48
2022/03/22 07:30:28;;;;;;;;;46.00;37.25;;;;;7.47;98.30;103022.03;3721970;38;21653;-48
2022/03/22 07:32:55;;;;;;;;;46.00;38.50;;;;;7.62;97.58;103017.47;3722098;37;21520;-48
2022/03/22 07:35:23;;;;;;;;;45.50;38.00;;;;;7.71;96.50;103027.63;3721660;37;21803;-46
2022/03/22 07:37:51;;;;;;;;;46.00;39.25;;;;;7.85;96.31;103024.81;3722069;37;21620;-49
2022/03/22 07:40:19;;;;;;;;;47.25;37.50;;;;;7.97;95.37;103034.75;3722069;37;21662;-46
2022/03/22 07:42:48;;;;;;;;;45.75;37.25;;;;;7.94;95.00;103039.50;3721997;38;21543;-46
2022/03/22 07:45:19;;;;;;;;;40.75;37.50;;;;;8.01;94.64;103040.78;3721963;38;21638;-46
2022/03/22 07:47:47;;;;;;;;;41.75;36.50;;;;;8.02;94.34;103010.16;3721794;37;21631;-50
2022/03/22 07:53:01;;;;;;;;;41.25;35.75;;;;;8.27;92.61;103025.50;3722088;38;21632;-52
2022/03/22 07:55:31;;;;;;;;;45.00;37.50;;;;;8.48;93.17;103021.28;3722294;38;21533;-54
2022/03/22 07:57:59;;;;;;;;;42.25;36.50;;;;;8.64;91.65;103021.03;3721923;38;21627;-52
2022/03/22 08:00:28;;;;;;;;;48.25;41.00;;;;;8.76;91.06;103013.91;3722149;37;21564;-53
2022/03/22 08:03:03;;;;;;;;;46.25;38.75;;;;;8.89;89.71;103006.59;3721572;38;21623;-53
2022/03/22 08:05:32;;;;;;;;;47.75;37.00;;;;;9.02;88.86;103014.66;3722289;37;21642;-54
2022/03/22 08:07:59;;;;;;;;;39.50;35.00;;;;;9.13;88.24;103003.94;3721364;37;21776;-53
2022/03/22 08:10:28;;;;;;;;;42.25;36.00;;;;;9.33;87.86;103003.31;3722185;37;21516;-52
2022/03/22 08:12:55;;;;;;;;;44.75;38.50;;;;;9.53;86.19;103009.87;3722294;37;21505;-53
2022/03/22 08:15:23;;;;;;;;;39.75;34.00;;;;;9.60;84.62;103001.19;3722030;38;21692;-52
2022/03/22 08:17:52;;;;;;;;;31.25;30.50;;;;;9.63;84.49;102990.13;3722280;37;21566;-52
2022/03/22 08:20:20;;;;;;;;;40.75;35.75;;;;;9.79;84.33;103000.63;3721491;38;21592;-52
2022/03/22 08:22:53;;;;;;;;;33.50;32.50;;;;;9.98;83.17;103012.69;3721837;38;21539;-52
2022/03/22 08:25:26;;;;;;;;;39.75;35.00;;;;;10.27;81.83;103003.19;3721432;37;21501;-53
2022/03/22 08:27:56;;;;;;;;;36.75;32.75;;;;;10.44;80.03;103010.81;3722426;37;21518;-55
2022/03/22 08:30:24;;;;;;;;;36.00;32.50;;;;;10.39;79.81;103009.47;3722450;37;21112;-53
2022/03/22 08:32:53;;;;;;;;;33.25;30.75;;;;;10.47;79.79;103013.25;3721309;38;21146;-54
2022/03/22 08:35:23;;;;;;;;;34.50;31.75;;;;;10.47;79.22;103002.44;3722300;37;21532;-51
2022/03/22 08:37:51;;;;;;;;;30.50;28.00;;;;;10.65;76.81;103010.06;3722140;37;21282;-52
2022/03/22 08:40:20;;;;;;;;;33.25;30.75;;;;;10.71;75.69;103007.72;3722240;38;21407;-53
2022/03/22 08:42:51;;;;;;;;;33.25;31.75;;;;;10.94;75.35;102994.97;3722343;37;21552;-52
2022/03/22 08:45:24;;;;;;;;;35.25;32.00;;;;;10.90;74.62;102986.28;3722161;37;21414;-52
2022/03/22 08:47:54;;;;;;;;;29.00;27.75;;;;;11.16;73.40;102997.62;3722132;38;21002;-51
2022/03/22 08:50:23;;;;;;;;;23.00;23.00;;;;;11.18;70.15;103000.22;3722286;37;21390;-53
2022/03/22 08:52:50;;;;;;;;;34.00;31.50;;;;;11.33;70.71;103006.22;3721290;37;21485;-52
2022/03/22 08:55:18;;;;;;;;;26.25;25.00;;;;;11.35;69.64;102996.09;3722005;38;21460;-52
2022/03/22 08:57:48;;;;;;;;;26.50;25.00;;;;;11.32;67.18;102999.94;3722234;38;21284;-52
2022/03/22 09:00:19;;;;;;;;;24.50;23.50;;;;;11.41;67.06;102993.72;3722149;38;21424;-52
2022/03/22 09:02:49;;;;;;;;;28.75;26.75;;;;;11.45;65.20;102994.31;3722140;37;21442;-51
2022/03/22 09:08:06;;;;;;;;;29.50;28.50;;;;;11.57;66.27;103004.97;3722053;38;21430;-52
2022/03/22 09:10:36;;;;;;;;;28.00;25.75;;;;;11.61;63.62;102978.47;3722238;37;20971;-51
2022/03/22 09:13:08;;;;;;;;;24.00;23.00;;;;;11.63;63.21;103003.59;3722300;38;21373;-51
2022/03/22 09:15:38;;;;;;;;;23.25;20.50;;;;;11.58;62.76;102963.31;3722126;37;21334;-52
2022/03/22 09:18:16;;;;;;;;;19.75;18.75;;;;;11.75;63.11;102958.28;3722251;38;21440;-53
2022/03/22 09:20:45;;;;;;;;;23.50;23.25;;;;;11.71;61.17;102954.97;3722584;38;21435;-52
2022/03/22 09:23:13;;;;;;;;;23.75;23.50;;;;;12.00;59.20;102951.59;3721931;38;21332;-51
2022/03/22 09:25:43;;;;;;;;;16.00;15.50;;;;;12.27;58.62;102950.03;3722136;38;21436;-52
2022/03/22 09:28:11;;;;;;;;;17.50;16.00;;;;;12.36;54.38;102948.34;3723146;38;21591;-52
2022/03/22 09:30:39;;;;;;;;;16.50;15.75;;;;;12.39;52.99;102958.06;3721939;37;21432;-51
2022/03/22 09:33:11;;;;;;;;;22.00;21.50;;;;;12.41;55.30;102954.22;3722888;37;21395;-51
2022/03/22 09:35:39;;;;;;;;;16.75;16.25;;;;;12.21;54.09;102944.28;3722667;38;21582;-51
2022/03/22 09:38:07;;;;;;;;;24.25;22.50;;;;;12.53;54.64;102944.09;3722223;37;21368;-53
2022/03/22 09:40:35;;;;;;;;;21.50;21.00;;;;;12.51;52.55;102935.22;3722138;38;21271;-51
2022/03/22 09:43:02;;;;;;;;;17.50;17.00;;;;;12.67;50.83;102938.28;3722412;37;21309;-52
2022/03/22 09:45:33;;;;;;;;;19.50;18.50;;;;;12.86;48.79;102934.75;3722363;37;21453;-52
2022/03/22 09:48:01;;;;;;;;;18.50;18.00;;;;;12.92;47.16;102929.59;3722538;38;21595;-52
2022/03/22 09:53:17;;;;;;;;;17.50;16.00;;;;;13.16;45.88;102926.47;3722444;38;21403;-52
2022/03/22 09:55:45;;;;;;;;;16.75;16.25;;;;;13.29;45.40;102909.88;3722073;38;21601;-51
2022/03/22 09:58:13;;;;;;;;;12.75;12.25;;;;;13.23;44.46;102926.78;3722037;38;21322;-52
2022/03/22 10:00:40;;;;;;;;;16.00;16.00;;;;;13.15;45.17;102919.28;3722303;37;21531;-52
2022/03/22 10:03:09;;;;;;;;;13.25;13.25;;;;;12.96;45.07;102934.75;3722615;37;21318;-51
2022/03/22 10:05:37;;;;;;;;;17.00;16.00;;;;;13.11;43.16;102908.84;3723094;37;21355;-53
2022/03/22 10:08:07;;;;;;;;;11.25;11.25;;;;;13.31;40.86;102916.03;3722212;37;21389;-51
2022/03/22 10:10:52;;;;;;;;;16.25;14.50;;;;;13.46;39.52;102897.41;3722131;37;21356;-52
2022/03/22 10:13:19;;;;;;;;;18.50;15.00;;;;;13.49;39.54;102894.41;3722743;37;21525;-52
2022/03/22 10:15:47;;;;;;;;;17.25;16.25;;;;;13.74;38.39;102917.41;3721607;38;21416;-49
2022/03/22 10:18:14;;;;;;;;;14.25;13.50;;;;;13.75;36.57;102905.50;3722407;38;21425;-51
2022/03/22 10:20:42;;;;;;;;;11.50;11.00;;;;;13.83;36.95;102890.16;3721935;37;21358;-51
2022/03/22 10:23:10;;;;;;;;;8.50;8.50;;;;;13.97;34.86;102880.66;3721669;37;20973;-51
2022/03/22 10:25:42;;;;;;;;;15.25;13.75;;;;;14.04;35.16;102892.62;3722240;38;21263;-52
2022/03/22 10:28:10;;;;;;;;;15.00;14.00;;;;;14.34;34.91;102909.72;3721678;38;20780;-50
2022/03/22 10:30:38;;;;;;;;;14.50;14.50;;;;;14.34;34.88;102883.31;3721577;37;21255;-52
2022/03/22 10:33:06;;;;;;;;;12.25;12.25;;;;;14.33;35.43;102880.75;3722297;38;21378;-52
2022/03/22 10:35:37;;;;;;;;;13.00;12.25;;;;;14.39;35.53;102864.66;3721648;37;21261;-52
2022/03/22 10:38:07;;;;;;;;;16.25;14.00;;;;;14.46;34.15;102865.81;3722551;37;20869;-50
2022/03/22 10:40:45;;;;;;;;;14.75;14.75;;;;;14.31;32.79;102890.94;3722517;37;20788;-50
2022/03/22 10:43:16;;;;;;;;;13.75;13.75;;;;;14.39;33.41;102880.16;3722457;37;20769;-51
2022/03/22 10:45:59;;;;;;;;;17.25;15.75;;;;;14.48;33.26;102871.09;3722334;38;20963;-50
2022/03/22 10:48:32;;;;;;;;;12.50;12.00;;;;;14.40;33.36;102850.03;3721513;37;20745;-53
2022/03/22 10:51:00;;;;;;;;;11.25;11.25;;;;;14.63;33.16;102864.09;3722308;37;21023;-54
2022/03/22 10:53:34;;;;;;;;;13.50;13.25;;;;;14.49;32.43;102849.16;3722437;37;20987;-50
2022/03/22 10:56:04;;;;;;;;;13.50;13.25;;;;;14.57;32.18;102827.41;3721479;37;20985;-54
2022/03/22 10:58:34;;;;;;;;;14.25;14.25;;;;;14.84;32.95;102837.41;3721603;37;20801;-52
2022/03/22 11:01:06;;;;;;;;;14.25;13.50;;;;;14.95;32.44;102832.72;3721596;37;20766;-54
2022/03/22 11:03:34;;;;;;;;;12.25;12.00;;;;;14.83;32.23;102819.31;3722247;38;20822;-52
2022/03/22 11:06:04;;;;;;;;;19.25;15.50;;;;;15.02;32.66;102812.00;3722399;37;20824;-51
2022/03/22 11:08:32;;;;;;;;;12.75;12.75;;;;;15.26;31.14;102820.34;3722522;37;20891;-53
2022/03/22 11:10:59;;;;;;;;;14.00;13.00;;;;;15.02;30.38;102822.91;3722302;38;21099;-51
2022/03/22 11:13:27;;;;;;;;;12.75;12.75;;;;;15.21;30.22;102818.09;3722272;37;20790;-50
2022/03/22 11:15:56;;;;;;;;;12.00;11.25;;;;;15.20;29.77;102808.19;3722436;37;20795;-52
2022/03/22 11:18:27;;;;;;;;;11.00;10.25;;;;;15.40;28.83;102808.84;3722323;38;20831;-53
2022/03/22 11:21:02;;;;;;;;;14.50;13.25;;;;;15.35;28.77;102802.16;3722282;38;20899;-51
2022/03/22 11:23:32;;;;;;;;;13.50;11.00;;;;;15.32;29.05;102799.75;3722303;37;20786;-53
2022/03/22 11:26:16;;;;;;;;;8.75;8.00;;;;;15.33;28.16;102801.47;3722428;37;20785;-51
2022/03/22 11:28:46;;;;;;;;;12.00;11.50;;;;;15.39;28.08;102792.63;3722529;38;20751;-53
2022/03/22 11:31:16;;;;;;;;;10.00;9.25;;;;;15.54;28.07;102786.44;3722021;37;20681;-51
2022/03/22 11:37:00;;;;;;;;;10.25;9.75;;;;;15.64;27.79;102791.78;3721577;37;20984;-52
2022/03/22 11:42:20;;;;;;;;;11.00;10.25;;;;;15.67;27.10;102798.78;3722004;37;21284;-51
2022/03/22 11:45:03;;;;;;;;;12.25;11.50;;;;;15.66;27.19;102788.87;3721555;37;21435;-50
2022/03/22 11:47:44;;;;;;;;;11.00;10.50;;;;;15.62;27.40;102795.69;3722317;37;21137;-51
2022/03/22 11:50:20;;;;;;;;;11.00;9.75;;;;;15.55;27.24;102770.91;3722118;38;21140;-51